map of BEW home
BEW - Airport
Location
City:  Beira, Sofala, Mozambique
Name:Beira Airport
ICAO:FQBR
IATA:BEW

Details
Type:Airport (Aerodrome, Airfield)
Use:Public/Civil, International (customs port of entry)
Latitude:1947'47"S (-19.796418)
Longitude:3454'27"E (34.907556)
Datum:WGS 1984
Elevation:33 ft (10 m)
Variation:12.25W (WMM2015v2 magnetic declination)
-0.08 annual change
Runways:3
Longest:7874 × 148 ft (2400 × 45 m), paved

Time
Time Zone:UTC+2
Local Time:

Weather
METAR:FQBR 041400Z /////KT 9999 FEW019 30/24 Q1008
TAF:FQBR 041000Z 0412/0518 17010KT 9999 BKN018 TX32/0413Z TN26/0503Z
BECMG 0418/0420 07015KT FEW025
BECMG 0506/0508 15010KT

Related Locations
Nearby:
Farthest:ITO: 11800 mi / 18990 km
Hilo [Hilo Intl], Hawaii, HI, US

Find:

   beyond  
but within

Other Information
Maps:
NOTAMs:
Links:
Sources:

  
  • flag of Mozambique
  

Sectional Chart

Flight Planning
at skyvector.com

Satellite Image

Google Maps Satellite view

 

Copyright © 2004-2019 Karl L. Swartz. All rights reserved.
The Great Circle Mapper name and logo are trademarks of the Great Circle Mapper.
All other trademarks mentioned herein belong to their respective owners.
Please see credits for attibutions and further copyright information.

  Follow gcmap on Facebook Follow gcmap on Twitter GCmap on LinkedIn

hCard Microformat

Geo Microformat